Time;durP1;ratioP1;P1;durP2;ratioP2;P2;SDS_P1;SDS_P2;PMS_P1;PMS_P2;Temp;Humidity;BMP_temperature;BMP_pressure;BME280_temperature;BME280_humidity;BME280_pressure;Samples;Min_cycle;Max_cycle;Signal;HPM_P1;HPM_P2
2022/10/05 00:02:35;;;;;;;8.05;2.70;;;;;;;;;;10449827;28;20379;-49
2022/10/05 00:07:35;;;;;;;12.57;2.65;;;;;;;;;;10450142;28;20036;-55
2022/10/05 00:12:36;;;;;;;14.90;2.63;;;;;;;;;;10450385;28;20040;-50
2022/10/05 00:17:36;;;;;;;4.25;2.13;;;;;;;;;;10449743;28;20060;-54
2022/10/05 00:22:36;;;;;;;9.23;2.30;;;;;;;;;;10449852;28;20033;-56
2022/10/05 00:27:37;;;;;;;4.13;1.90;;;;;;;;;;10450117;28;20954;-54
2022/10/05 00:32:38;;;;;;;5.47;2.45;;;;;;;;;;10450087;28;20061;-50
2022/10/05 00:37:38;;;;;;;7.40;2.60;;;;;;;;;;10450215;28;20434;-55
2022/10/05 00:42:48;;;;;;;5.63;2.45;;;;;;;;;;10450163;28;20032;-51
2022/10/05 00:48:08;;;;;;;7.78;2.35;;;;;;;;;;10431529;28;20036;-51
2022/10/05 00:53:09;;;;;;;10.55;2.88;;;;;;;;;;10448853;28;20045;-55
2022/10/05 00:58:12;;;;;;;3.90;2.28;;;;;;;;;;10449211;28;20029;-54
2022/10/05 01:03:24;;;;;;;4.97;2.00;;;;;;;;;;10449713;28;20033;-54
2022/10/05 01:08:30;;;;;;;5.10;2.30;;;;;;;;;;10449222;28;20480;-55
2022/10/05 01:13:42;;;;;;;4.85;2.05;;;;;;;;;;10449379;28;20041;-54
2022/10/05 01:18:43;;;;;;;3.30;2.33;;;;;;;;;;10448662;28;20039;-52
2022/10/05 01:23:49;;;;;;;6.82;2.20;;;;;;;;;;10448737;28;20029;-49
2022/10/05 01:28:54;;;;;;;10.52;2.30;;;;;;;;;;10451993;28;20119;-55
2022/10/05 01:34:08;;;;;;;5.60;2.40;;;;;;;;;;10456659;28;20040;-55
2022/10/05 01:39:21;;;;;;;5.95;1.90;;;;;;;;;;10456544;28;20473;-50
2022/10/05 01:44:25;;;;;;;5.43;2.08;;;;;;;;;;10456101;28;20389;-54
2022/10/05 01:49:31;;;;;;;10.68;2.20;;;;;;;;;;10455980;28;20025;-49
2022/10/05 01:54:34;;;;;;;6.28;2.20;;;;;;;;;;10455848;28;20456;-54
2022/10/05 01:59:35;;;;;;;3.25;1.75;;;;;;;;;;10455690;28;20025;-55
2022/10/05 02:04:49;;;;;;;6.72;2.20;;;;;;;;;;10456138;28;20045;-54
2022/10/05 02:09:54;;;;;;;3.85;1.70;;;;;;;;;;10455188;28;20044;-53
2022/10/05 02:14:59;;;;;;;4.20;2.05;;;;;;;;;;10454855;28;20071;-49
2022/10/05 02:20:06;;;;;;;4.97;1.83;;;;;;;;;;10455056;28;20532;-56
2022/10/05 02:25:08;;;;;;;4.13;1.88;;;;;;;;;;10454526;28;20025;-55
2022/10/05 02:30:09;;;;;;;5.72;1.95;;;;;;;;;;10455578;28;20031;-51
2022/10/05 02:35:14;;;;;;;4.43;1.88;;;;;;;;;;10454413;28;20025;-50
2022/10/05 02:40:23;;;;;;;5.13;2.40;;;;;;;;;;10453906;28;20067;-54
2022/10/05 02:45:23;;;;;;;3.45;2.10;;;;;;;;;;10452967;28;20029;-50
2022/10/05 02:50:43;;;;;;;3.58;1.73;;;;;;;;;;10453483;28;20033;-54
2022/10/05 02:55:46;;;;;;;3.67;1.70;;;;;;;;;;10453815;28;20021;-65
2022/10/05 03:00:49;;;;;;;4.13;1.90;;;;;;;;;;10454181;28;20033;-52
2022/10/05 03:05:52;;;;;;;4.07;1.83;;;;;;;;;;10453614;28;20056;-53
2022/10/05 03:11:03;;;;;;;2.97;1.98;;;;;;;;;;10453089;28;20035;-53
2022/10/05 03:16:14;;;;;;;3.63;1.75;;;;;;;;;;10452825;28;20045;-54
2022/10/05 03:21:14;;;;;;;2.20;1.50;;;;;;;;;;10453147;28;20036;-51
2022/10/05 03:26:23;;;;;;;4.82;1.88;;;;;;;;;;10452389;28;20028;-51
2022/10/05 03:31:42;;;;;;;4.18;2.08;;;;;;;;;;10452704;28;20033;-52
2022/10/05 03:36:42;;;;;;;;;;;;;;;;;;10453066;28;20041;-53
2022/10/05 03:42:09;;;;;;;5.20;2.00;;;;;;;;;;10451777;28;20011;-49
2022/10/05 03:47:18;;;;;;;6.05;1.73;;;;;;;;;;10447451;28;20036;-47
2022/10/05 03:52:18;;;;;;;5.55;1.90;;;;;;;;;;10450958;28;20021;-47
2022/10/05 03:57:20;;;;;;;5.50;1.83;;;;;;;;;;10451794;28;20040;-52
2022/10/05 04:02:26;;;;;;;4.20;1.88;;;;;;;;;;10451110;28;20112;-48
2022/10/05 04:07:30;;;;;;;3.10;1.60;;;;;;;;;;10451253;28;20116;-48
2022/10/05 04:12:34;;;;;;;6.18;1.70;;;;;;;;;;10450947;28;20129;-50
2022/10/05 04:17:38;;;;;;;3.13;1.60;;;;;;;;;;10450596;28;20117;-52
2022/10/05 04:22:41;;;;;;;4.97;1.70;;;;;;;;;;10450317;28;20112;-52
2022/10/05 04:27:49;;;;;;;4.35;1.70;;;;;;;;;;10450257;28;20033;-51
2022/10/05 04:32:54;;;;;;;4.30;1.90;;;;;;;;;;10450720;28;20029;-53
2022/10/05 04:37:54;;;;;;;2.55;1.63;;;;;;;;;;10450544;28;20033;-53
2022/10/05 04:43:14;;;;;;;3.92;1.58;;;;;;;;;;10449928;28;20472;-49
2022/10/05 04:48:14;;;;;;;4.75;1.67;;;;;;;;;;10450380;28;20114;-47
2022/10/05 04:53:20;;;;;;;5.50;1.73;;;;;;;;;;10450008;28;20462;-50
2022/10/05 04:58:36;;;;;;;3.22;1.60;;;;;;;;;;10450237;28;20025;-51
2022/10/05 05:03:54;;;;;;;2.55;1.58;;;;;;;;;;10451522;28;20037;-48
2022/10/05 05:08:57;;;;;;;5.15;1.63;;;;;;;;;;10457876;28;20069;-49
2022/10/05 05:13:58;;;;;;;2.35;1.50;;;;;;;;;;10457993;28;20077;-50
2022/10/05 05:19:16;;;;;;;4.03;1.58;;;;;;;;;;10457534;28;20052;-51
2022/10/05 05:24:34;;;;;;;5.07;1.50;;;;;;;;;;10456896;28;20181;-56
2022/10/05 05:29:53;;;;;;;4.57;1.43;;;;;;;;;;10456922;28;20503;-59
2022/10/05 05:35:05;;;;;;;2.95;1.60;;;;;;;;;;10456946;28;20033;-59
2022/10/05 05:40:09;;;;;;;2.97;1.73;;;;;;;;;;10455836;28;20033;-67
2022/10/05 05:45:19;;;;;;;3.83;1.83;;;;;;;;;;10455110;28;20025;-58
2022/10/05 05:50:31;;;;;;;4.75;1.98;;;;;;;;;;10455261;28;20548;-58
2022/10/05 05:55:34;;;;;;;3.13;1.75;;;;;;;;;;10456097;28;20029;-56
2022/10/05 06:00:43;;;;;;;2.05;1.63;;;;;;;;;;10455737;28;20032;-59
2022/10/05 06:05:45;;;;;;;1.90;1.55;;;;;;;;;;10454890;28;20268;-59
2022/10/05 06:10:56;;;;;;;4.38;2.35;;;;;;;;;;10455144;28;20120;-59
2022/10/05 06:16:03;;;;;;;1.85;1.70;;;;;;;;;;10453658;28;20041;-59
2022/10/05 06:21:26;;;;;;;3.53;2.00;;;;;;;;;;10455311;28;20052;-71
2022/10/05 06:26:32;;;;;;;3.33;2.20;;;;;;;;;;10443256;28;20039;-61
2022/10/05 06:32:02;;;;;;;5.88;2.25;;;;;;;;;;10454448;28;20124;-59
2022/10/05 06:37:05;;;;;;;3.70;2.15;;;;;;;;;;10382510;28;20029;-60
2022/10/05 06:42:08;;;;;;;6.65;2.17;;;;;;;;;;10454040;28;20025;-59
2022/10/05 06:47:26;;;;;;;1.95;1.77;;;;;;;;;;10453817;28;20449;-59
2022/10/05 06:52:52;;;;;;;9.35;1.95;;;;;;;;;;10453766;28;20114;-59
2022/10/05 06:58:16;;;;;;;6.22;2.53;;;;;;;;;;10454101;28;20025;-59
2022/10/05 07:03:30;;;;;;;7.95;2.13;;;;;;;;;;10442271;28;20407;-59
2022/10/05 07:08:37;;;;;;;5.80;2.55;;;;;;;;;;10452797;28;20059;-59
2022/10/05 07:13:37;;;;;;;3.65;2.13;;;;;;;;;;10452938;28;20393;-59
2022/10/05 07:19:00;;;;;;;4.20;2.33;;;;;;;;;;10452603;28;20036;-59
2022/10/05 07:24:00;;;;;;;4.97;1.90;;;;;;;;;;10452291;28;20369;-58
2022/10/05 07:29:06;;;;;;;4.60;2.13;;;;;;;;;;10452474;28;20025;-59
2022/10/05 07:34:07;;;;;;;3.60;2.15;;;;;;;;;;10452444;28;20260;-64
2022/10/05 07:39:14;;;;;;;8.25;2.10;;;;;;;;;;10452328;28;20288;-64
2022/10/05 07:44:15;;;;;;;3.37;1.93;;;;;;;;;;10451512;28;20386;-59
2022/10/05 07:49:28;;;;;;;8.07;1.87;;;;;;;;;;10451858;28;20112;-59
2022/10/05 07:54:44;;;;;;;2.53;2.33;;;;;;;;;;10451379;28;20040;-59
2022/10/05 07:59:47;;;;;;;6.65;2.15;;;;;;;;;;10451423;28;20025;-60
2022/10/05 08:04:55;;;;;;;6.18;2.10;;;;;;;;;;10450350;28;20033;-59
2022/10/05 08:10:11;;;;;;;3.27;2.00;;;;;;;;;;10450934;28;20025;-62
2022/10/05 08:15:16;;;;;;;2.20;2.00;;;;;;;;;;10450201;28;20044;-67
2022/10/05 08:20:42;;;;;;;4.20;1.80;;;;;;;;;;10449921;28;20025;-59
2022/10/05 08:25:53;;;;;;;2.13;1.70;;;;;;;;;;10449882;28;20469;-59
2022/10/05 08:31:13;;;;;;;2.90;1.90;;;;;;;;;;10450053;28;20082;-59
2022/10/05 08:36:18;;;;;;;3.45;2.20;;;;;;;;;;10435855;28;20132;-59
2022/10/05 08:41:38;;;;;;;2.45;2.05;;;;;;;;;;10449546;28;20108;-60
2022/10/05 08:46:50;;;;;;;3.25;2.30;;;;;;;;;;10450831;28;20036;-61
2022/10/05 08:52:01;;;;;;;2.97;1.90;;;;;;;;;;10449442;28;20025;-60
2022/10/05 08:57:01;;;;;;;2.47;1.65;;;;;;;;;;10450669;28;20044;-59
2022/10/05 09:02:07;;;;;;;3.05;1.83;;;;;;;;;;10449652;28;20036;-59
2022/10/05 09:07:10;;;;;;;3.83;1.70;;;;;;;;;;10449475;28;20028;-59
2022/10/05 09:12:19;;;;;;;2.28;1.88;;;;;;;;;;10448238;28;20072;-59
2022/10/05 09:17:22;;;;;;;3.80;2.03;;;;;;;;;;10448751;28;20032;-57
2022/10/05 09:22:41;;;;;;;3.13;1.88;;;;;;;;;;10448598;28;20041;-59
2022/10/05 09:27:48;;;;;;;2.78;2.10;;;;;;;;;;10447845;28;20314;-59
2022/10/05 09:33:07;;;;;;;2.78;1.83;;;;;;;;;;10448223;28;20060;-59
2022/10/05 09:38:26;;;;;;;5.57;1.95;;;;;;;;;;10446804;28;20233;-59
2022/10/05 09:43:26;;;;;;;3.83;1.85;;;;;;;;;;10447271;28;20108;-59
2022/10/05 09:48:46;;;;;;;3.00;2.00;;;;;;;;;;10448109;28;20037;-59
2022/10/05 09:53:46;;;;;;;2.20;2.00;;;;;;;;;;10455082;28;20040;-59
2022/10/05 09:59:04;;;;;;;3.83;2.10;;;;;;;;;;10455502;28;20029;-60
2022/10/05 10:04:10;;;;;;;4.57;2.30;;;;;;;;;;10455808;28;20036;-61
2022/10/05 10:09:19;;;;;;;3.50;1.95;;;;;;;;;;10455494;28;20029;-73
2022/10/05 10:14:28;;;;;;;3.15;2.20;;;;;;;;;;10454594;28;20072;-59
2022/10/05 10:19:43;;;;;;;3.00;2.25;;;;;;;;;;10455206;28;20116;-59
2022/10/05 10:25:02;;;;;;;3.38;1.90;;;;;;;;;;10454162;28;20029;-59
2022/10/05 10:30:08;;;;;;;3.90;2.20;;;;;;;;;;10454295;28;20534;-69
2022/10/05 10:35:19;;;;;;;3.38;2.00;;;;;;;;;;10454106;28;20124;-59
2022/10/05 10:40:25;;;;;;;4.30;2.08;;;;;;;;;;10453948;28;20074;-62
2022/10/05 10:45:47;;;;;;;4.10;2.30;;;;;;;;;;10454262;28;20025;-59
2022/10/05 10:50:47;;;;;;;5.10;2.25;;;;;;;;;;10454011;28;20127;-59
2022/10/05 10:56:03;;;;;;;2.15;1.95;;;;;;;;;;10453698;28;20437;-58
2022/10/05 11:01:21;;;;;;;3.30;2.05;;;;;;;;;;10453308;28;20037;-59
2022/10/05 11:06:32;;;;;;;4.90;2.75;;;;;;;;;;10453178;28;20370;-60
2022/10/05 11:11:52;;;;;;;3.70;2.10;;;;;;;;;;10452273;28;20427;-58
2022/10/05 11:16:58;;;;;;;3.63;2.05;;;;;;;;;;10452570;28;20041;-59
2022/10/05 11:22:18;;;;;;;4.93;2.38;;;;;;;;;;10453174;28;20017;-60
2022/10/05 11:27:35;;;;;;;3.40;2.10;;;;;;;;;;10452762;28;20044;-59
2022/10/05 11:32:49;;;;;;;3.60;1.90;;;;;;;;;;10451343;28;20066;-59
2022/10/05 11:37:57;;;;;;;3.50;2.30;;;;;;;;;;10451415;28;20043;-60
2022/10/05 11:43:09;;;;;;;2.55;2.30;;;;;;;;;;10451365;28;20047;-59
2022/10/05 11:48:10;;;;;;;3.95;2.20;;;;;;;;;;10451107;28;20357;-60
2022/10/05 11:53:18;;;;;;;3.17;2.25;;;;;;;;;;10451488;28;20033;-64
2022/10/05 11:58:20;;;;;;;4.00;2.42;;;;;;;;;;10450584;28;20044;-59
2022/10/05 12:03:20;;;;;;;4.63;2.42;;;;;;;;;;10450450;28;20486;-59
2022/10/05 12:08:24;;;;;;;3.08;2.25;;;;;;;;;;10450056;28;20077;-61
2022/10/05 12:13:35;;;;;;;3.70;2.30;;;;;;;;;;10449727;28;20045;-62
2022/10/05 12:18:38;;;;;;;5.57;2.38;;;;;;;;;;10449903;28;20029;-59
2022/10/05 12:23:39;;;;;;;4.63;2.30;;;;;;;;;;10449467;28;20403;-59
2022/10/05 12:28:43;;;;;;;4.68;2.40;;;;;;;;;;10449430;28;20025;-59
2022/10/05 12:33:46;;;;;;;8.52;2.80;;;;;;;;;;10449643;28;20029;-61
2022/10/05 12:39:13;;;;;;;6.63;2.20;;;;;;;;;;10448450;28;20123;-59
2022/10/05 12:44:17;;;;;;;4.78;2.15;;;;;;;;;;10444276;28;20052;-59
2022/10/05 12:49:23;;;;;;;3.45;2.10;;;;;;;;;;10449071;28;20047;-59
2022/10/05 12:54:42;;;;;;;3.58;2.20;;;;;;;;;;10449285;28;20036;-67
2022/10/05 12:59:42;;;;;;;;;;;;;;;;;;10449103;28;20495;-60
2022/10/05 13:05:01;;;;;;;2.85;2.25;;;;;;;;;;10448636;28;19912;-73
2022/10/05 13:10:01;;;;;;;4.55;2.50;;;;;;;;;;10430571;28;20519;-59
2022/10/05 13:15:14;;;;;;;5.15;2.20;;;;;;;;;;10448791;28;20200;-59
2022/10/05 13:20:21;;;;;;;8.52;2.45;;;;;;;;;;10448451;28;20021;-60
2022/10/05 13:25:21;;;;;;;2.67;2.00;;;;;;;;;;10452644;28;20269;-60
2022/10/05 13:30:21;;;;;;;7.90;2.35;;;;;;;;;;10457728;28;20284;-59
2022/10/05 13:35:27;;;;;;;10.52;2.78;;;;;;;;;;10456339;28;20381;-59
2022/10/05 13:40:31;;;;;;;4.80;2.50;;;;;;;;;;10455716;28;20064;-60
2022/10/05 13:45:38;;;;;;;4.22;2.38;;;;;;;;;;10456887;28;20040;-60
2022/10/05 13:50:50;;;;;;;6.43;2.42;;;;;;;;;;10456048;28;20029;-59
2022/10/05 13:56:12;;;;;;;10.75;2.20;;;;;;;;;;10455862;28;20093;-59
2022/10/05 14:01:21;;;;;;;4.28;2.38;;;;;;;;;;10455767;28;20095;-62
2022/10/05 14:06:29;;;;;;;2.38;2.00;;;;;;;;;;10454980;28;20392;-59
2022/10/05 14:11:30;;;;;;;4.88;2.55;;;;;;;;;;10454925;28;20057;-60
2022/10/05 14:16:32;;;;;;;3.45;2.55;;;;;;;;;;10453101;28;20049;-59
2022/10/05 14:21:42;;;;;;;2.25;2.05;;;;;;;;;;10453952;28;20025;-60
2022/10/05 14:26:49;;;;;;;3.95;2.25;;;;;;;;;;10454513;28;20033;-59
2022/10/05 14:31:59;;;;;;;4.68;2.50;;;;;;;;;;10453513;28;20029;-59
2022/10/05 14:37:02;;;;;;;2.97;2.20;;;;;;;;;;10453497;28;20464;-65
2022/10/05 14:42:28;;;;;;;3.20;2.08;;;;;;;;;;10451062;28;20029;-59
2022/10/05 14:47:29;;;;;;;3.08;2.15;;;;;;;;;;10449264;28;20045;-59
2022/10/05 14:52:34;;;;;;;6.13;2.10;;;;;;;;;;10452191;28;20553;-60
2022/10/05 14:57:44;;;;;;;2.88;2.33;;;;;;;;;;10453709;28;20472;-60
2022/10/05 15:03:17;;;;;;;3.00;2.15;;;;;;;;;;10453407;28;20021;-61
2022/10/05 15:08:40;;;;;;;2.33;2.00;;;;;;;;;;10408808;28;20044;-59
2022/10/05 15:13:41;;;;;;;2.53;2.25;;;;;;;;;;10452520;28;20072;-59
2022/10/05 15:18:48;;;;;;;6.53;2.30;;;;;;;;;;10452782;28;20036;-59
2022/10/05 15:24:26;;;;;;;4.60;2.10;;;;;;;;;;10452986;28;20107;-60
2022/10/05 15:29:37;;;;;;;7.22;2.03;;;;;;;;;;10283416;28;20479;-59
2022/10/05 15:34:47;;;;;;;2.22;1.90;;;;;;;;;;10283182;28;20178;-60
2022/10/05 15:39:48;;;;;;;3.63;1.83;;;;;;;;;;10283075;28;20043;-59
2022/10/05 15:44:51;;;;;;;4.07;2.53;;;;;;;;;;10282558;28;20043;-60
2022/10/05 15:50:12;;;;;;;8.85;2.25;;;;;;;;;;10282519;28;20419;-59
2022/10/05 15:55:52;;;;;;;2.88;2.03;;;;;;;;;;10282672;28;20027;-60
2022/10/05 16:01:08;;;;;;;3.03;2.13;;;;;;;;;;10304222;28;20099;-59
2022/10/05 16:11:51;;;;;;;3.88;1.83;;;;;;;;;;10321793;28;20042;-59
2022/10/05 16:17:06;;;;;;;2.35;1.80;;;;;;;;;;10320885;28;20398;-59
2022/10/05 16:22:09;;;;;;;3.63;1.80;;;;;;;;;;10317627;28;20030;-59
2022/10/05 16:27:25;;;;;;;2.47;1.98;;;;;;;;;;10319987;28;20030;-59
2022/10/05 16:32:32;;;;;;;3.45;2.30;;;;;;;;;;10437525;28;20041;-59
2022/10/05 16:37:35;;;;;;;2.25;1.88;;;;;;;;;;10446943;28;20033;-60
2022/10/05 16:42:36;;;;;;;3.38;2.10;;;;;;;;;;10448124;28;20037;-59
2022/10/05 16:47:56;;;;;;;5.25;1.90;;;;;;;;;;10448898;28;20102;-67
2022/10/05 16:53:00;;;;;;;7.40;2.50;;;;;;;;;;10447923;28;20387;-59
2022/10/05 16:58:02;;;;;;;3.70;2.00;;;;;;;;;;10430228;28;20108;-59
2022/10/05 17:03:07;;;;;;;4.78;1.83;;;;;;;;;;10456831;28;20095;-60
2022/10/05 17:08:30;;;;;;;4.88;2.55;;;;;;;;;;10457300;28;20029;-60
2022/10/05 17:13:57;;;;;;;5.68;2.00;;;;;;;;;;10453854;22;20053;-58
2022/10/05 17:19:15;;;;;;;4.55;1.80;;;;;;;;;;10411158;28;20117;-57
2022/10/05 17:24:21;;;;;;;2.85;2.03;;;;;;;;;;10415568;28;20029;-58
2022/10/05 17:29:23;;;;;;;2.03;1.80;;;;;;;;;;10414925;28;20033;-58
2022/10/05 17:34:25;;;;;;;2.67;1.90;;;;;;;;;;10414898;28;20037;-55
2022/10/05 17:39:43;;;;;;;5.88;1.67;;;;;;;;;;10413735;28;20022;-56
2022/10/05 17:44:44;;;;;;;3.33;2.08;;;;;;;;;;10413961;28;20098;-57
2022/10/05 17:55:24;;;;;;;6.33;2.27;;;;;;;;;;10414552;28;20116;-55
2022/10/05 17:55:26;;;;;;;5.32;2.28;;;;;;;;;;10413890;28;20524;-53
2022/10/05 18:00:31;;;;;;;25.58;4.55;;;;;;;;;;10409935;28;20026;-54
2022/10/05 18:05:32;;;;;;;26.48;3.58;;;;;;;;;;10411871;28;20025;-51
2022/10/05 18:10:32;;;;;;;17.70;3.30;;;;;;;;;;10410374;28;20029;-53
2022/10/05 18:15:32;;;;;;;18.27;3.50;;;;;;;;;;10412735;28;20069;-59
2022/10/05 18:20:33;;;;;;;17.67;3.22;;;;;;;;;;10412365;28;20041;-54
2022/10/05 18:25:52;;;;;;;11.50;3.47;;;;;;;;;;10414116;28;20036;-54
2022/10/05 18:30:58;;;;;;;6.20;3.28;;;;;;;;;;10413213;28;20029;-55
2022/10/05 18:36:02;;;;;;;7.82;3.08;;;;;;;;;;10413102;28;20033;-58
2022/10/05 18:41:07;;;;;;;6.68;3.17;;;;;;;;;;10412100;28;20037;-59
2022/10/05 18:46:14;;;;;;;10.07;3.05;;;;;;;;;;10412907;28;20068;-59
2022/10/05 18:51:27;;;;;;;7.93;3.03;;;;;;;;;;10412087;28;20501;-58
2022/10/05 18:56:36;;;;;;;5.03;2.72;;;;;;;;;;10412069;28;20029;-58
2022/10/05 19:01:46;;;;;;;12.63;2.97;;;;;;;;;;10410632;28;20492;-58
2022/10/05 19:06:49;;;;;;;9.82;2.78;;;;;;;;;;10412186;28;20083;-59
2022/10/05 19:12:09;;;;;;;6.85;2.75;;;;;;;;;;10411514;28;20506;-58
2022/10/05 19:17:19;;;;;;;8.57;3.00;;;;;;;;;;10409883;28;20049;-58
2022/10/05 19:22:29;;;;;;;7.53;2.65;;;;;;;;;;10408927;28;20053;-58
2022/10/05 19:27:48;;;;;;;3.60;2.40;;;;;;;;;;10408877;28;20208;-57
2022/10/05 19:33:03;;;;;;;4.18;2.13;;;;;;;;;;10409366;28;20029;-58
2022/10/05 19:38:22;;;;;;;7.05;2.22;;;;;;;;;;10411078;28;20034;-57
2022/10/05 19:43:29;;;;;;;13.98;3.25;;;;;;;;;;10410447;28;20032;-57
2022/10/05 19:49:01;;;;;;;6.65;2.85;;;;;;;;;;10410497;28;20033;-57
2022/10/05 19:54:12;;;;;;;6.95;2.75;;;;;;;;;;10364590;28;20091;-52
2022/10/05 19:59:16;;;;;;;5.05;2.63;;;;;;;;;;10410131;28;20045;-54
2022/10/05 20:04:32;;;;;;;6.00;2.72;;;;;;;;;;10409622;28;20025;-55
2022/10/05 20:09:51;;;;;;;9.52;2.60;;;;;;;;;;10409966;28;20037;-56
2022/10/05 20:20:29;;;;;;;4.68;2.08;;;;;;;;;;10410032;28;20105;-56
2022/10/05 20:25:30;;;;;;;7.13;2.83;;;;;;;;;;10409164;28;20031;-56
2022/10/05 20:30:32;;;;;;;4.13;2.50;;;;;;;;;;10409464;28;20380;-55
2022/10/05 20:35:32;;;;;;;8.98;3.08;;;;;;;;;;10408540;28;20029;-55
2022/10/05 20:40:33;;;;;;;9.57;3.15;;;;;;;;;;10409136;28;20091;-55
2022/10/05 20:45:35;;;;;;;6.80;3.28;;;;;;;;;;10408257;28;20061;-55
2022/10/05 20:50:36;;;;;;;11.38;3.17;;;;;;;;;;10408412;28;20029;-55
2022/10/05 20:55:36;;;;;;;8.82;2.80;;;;;;;;;;10408776;28;20029;-55
2022/10/05 21:05:55;;;;;;;12.55;3.15;;;;;;;;;;10409001;28;20430;-57
2022/10/05 21:10:55;;;;;;;15.40;3.58;;;;;;;;;;10408418;28;20037;-58
2022/10/05 21:15:56;;;;;;;10.63;3.05;;;;;;;;;;10407927;28;20045;-58
2022/10/05 21:20:56;;;;;;;8.25;3.03;;;;;;;;;;10408502;28;20041;-58
2022/10/05 21:25:57;;;;;;;6.25;2.85;;;;;;;;;;10407653;28;20032;-59
2022/10/05 21:30:57;;;;;;;8.55;3.25;;;;;;;;;;10408352;28;20095;-55
2022/10/05 21:35:57;;;;;;;24.20;4.80;;;;;;;;;;10408459;28;20036;-51
2022/10/05 21:40:58;;;;;;;26.13;3.92;;;;;;;;;;10407550;28;20052;-54
2022/10/05 21:45:58;;;;;;;19.57;4.60;;;;;;;;;;10410403;28;20116;-59
2022/10/05 21:50:58;;;;;;;22.57;4.00;;;;;;;;;;10415069;28;20030;-54
2022/10/05 21:56:01;;;;;;;9.75;3.63;;;;;;;;;;10414931;28;20030;-54
2022/10/05 22:01:01;;;;;;;11.25;3.45;;;;;;;;;;10415065;28;20029;-57
2022/10/05 22:06:02;;;;;;;14.35;3.80;;;;;;;;;;10414734;28;20026;-57
2022/10/05 22:11:10;;;;;;;12.50;3.20;;;;;;;;;;10413612;28;20071;-61
2022/10/05 22:16:11;;;;;;;12.07;3.27;;;;;;;;;;10413522;28;20045;-61
2022/10/05 22:21:12;;;;;;;17.25;3.17;;;;;;;;;;10413914;28;20025;-60
2022/10/05 22:26:15;;;;;;;17.60;3.33;;;;;;;;;;10413607;28;20205;-60
2022/10/05 22:31:16;;;;;;;9.15;3.17;;;;;;;;;;10413617;28;20117;-61
2022/10/05 22:36:17;;;;;;;10.63;3.60;;;;;;;;;;10413060;28;20041;-61
2022/10/05 22:41:17;;;;;;;14.05;3.40;;;;;;;;;;10412531;28;20033;-61
2022/10/05 22:46:17;;;;;;;10.65;3.03;;;;;;;;;;10412442;28;20025;-61
2022/10/05 22:51:18;;;;;;;9.10;3.40;;;;;;;;;;10412460;28;20021;-60
2022/10/05 22:56:18;;;;;;;9.02;3.30;;;;;;;;;;10412181;28;20120;-60
2022/10/05 23:01:18;;;;;;;10.93;3.27;;;;;;;;;;10412185;28;20028;-59
2022/10/05 23:06:19;;;;;;;5.40;2.45;;;;;;;;;;10412559;28;20288;-56
2022/10/05 23:11:22;;;;;;;7.72;2.88;;;;;;;;;;10411259;28;20432;-61
2022/10/05 23:16:24;;;;;;;8.20;2.92;;;;;;;;;;10411253;28;20523;-61
2022/10/05 23:21:26;;;;;;;13.57;2.55;;;;;;;;;;10411513;28;20025;-61
2022/10/05 23:26:26;;;;;;;5.63;2.55;;;;;;;;;;10411397;28;20510;-62
2022/10/05 23:31:28;;;;;;;8.87;3.23;;;;;;;;;;10411712;28;20033;-59
2022/10/05 23:36:31;;;;;;;12.80;3.15;;;;;;;;;;10411208;28;20465;-62
2022/10/05 23:41:31;;;;;;;9.77;2.47;;;;;;;;;;10411282;28;20030;-62
2022/10/05 23:46:32;;;;;;;8.15;2.88;;;;;;;;;;10410626;28;20092;-61
2022/10/05 23:51:32;;;;;;;12.75;3.13;;;;;;;;;;10410553;28;20029;-62
2022/10/05 23:56:32;;;;;;;6.40;2.40;;;;;;;;;;10410416;28;20034;-60
